This is the latest recevied weather packets stored in our database for station/object SQ9SMC-13. If no packets are shown the sender has not sent any weather packets the latest 10 day(s).
| Time | Temp. | Humidity | Pressure | Rain* | Wind** | Luminosity | Snow |
|---|---|---|---|---|---|---|---|
| 1777190103 | 6.67° C | 61% | 1021.2 hPa | 0 mm | - | 518 W/m² | - |
| 1777189804 | 7.22° C | 62% | 1021.2 hPa | 0 mm | - | 106 W/m² | - |
| 1777189506 | 6.67° C | 61% | 1021.2 hPa | 0 mm | - | 169 W/m² | - |
| 1777189205 | 8.33° C | 58% | 1021.1 hPa | 0 mm | - | 109 W/m² | - |
| 1777188903 | 7.78° C | 57% | 1021.1 hPa | 0 mm | - | 523 W/m² | - |
| 1777188603 | 6.67° C | 63% | 1021.1 hPa | 0 mm | - | 188 W/m² | - |
| 1777188303 | 8.33° C | 61% | 1020.7 hPa | 0 mm | - | 64 W/m² | - |
| 1777188004 | 7.78° C | 60% | 1020.7 hPa | 0 mm | - | 498 W/m² | - |
| 1777187703 | 6.67° C | 64% | 1020.8 hPa | 0 mm | - | 404 W/m² | - |
| 1777187402 | 7.22° C | 65% | 1020.7 hPa | 0 mm | - | 102 W/m² | - |
| 1777187103 | 6.67° C | 66% | 1020.4 hPa | 0 mm | - | 449 W/m² | - |
| 1777186803 | 6.67° C | 65% | 1020.5 hPa | 0 mm | - | 151 W/m² | - |
| 1777186503 | 7.22° C | 64% | 1020.3 hPa | 0 mm | - | 132 W/m² | - |
| 1777186204 | 7.22° C | 66% | 1020.2 hPa | 0 mm | - | 153 W/m² | - |
| 1777185906 | 6.67° C | 66% | 1020.3 hPa | 0 mm | - | 121 W/m² | - |
| 1777185603 | 6.67° C | 66% | 1020.3 hPa | 0 mm | - | 106 W/m² | - |
| 1777185305 | 6.67° C | 65% | 1020.2 hPa | 0 mm | - | 143 W/m² | - |
| 1777185003 | 6.67° C | 65% | 1020.1 hPa | 0 mm | - | 305 W/m² | - |
| 1777184704 | 7.22° C | 65% | 1020.2 hPa | 0 mm | - | 157 W/m² | - |
| 1777184403 | 6.67° C | 66% | 1019.9 hPa | 0 mm | - | 313 W/m² | - |
| 1777184103 | 6.11° C | 68% | 1020 hPa | 0 mm | - | 316 W/m² | - |
| 1777183806 | 6.11° C | 69% | 1019.6 hPa | 0 mm | - | 108 W/m² | - |
| 1777183502 | 6.67° C | 68% | 1019.9 hPa | 0 mm | - | 85 W/m² | - |
| 1777183203 | 6.67° C | 68% | 1019.7 hPa | 0 mm | - | 220 W/m² | - |
| 1777182904 | 6.67° C | 67% | 1019.5 hPa | 0 mm | - | 101 W/m² | - |
* Rain latest hour (hover to see other rain measurements)
** Current wind speed in m/s (hover to see current wind gust speed)